| time (UTC) | temp C | wind direction | speed KPH | gust KPH | rain 1hr cm | rain 24hr cm | rain mn cm | humidity % | barometer mb |
| 20260504220946 | 26 | 269 | 6.4 | 6.4 | 0.00 | 0.00 | 0.00 | 42 | 1012.1 |
| 20260504220442 | 26 | 239 | 8.0 | 11.3 | 0.00 | 0.00 | 0.00 | 41 | 1011.9 |
| 20260504215939 | 26 | 220 | 4.8 | 4.8 | 0.00 | 0.00 | 0.00 | 42 | 1012.2 |
| 20260504215436 | 26 | 255 | 6.4 | 14.5 | 0.00 | 0.00 | 0.00 | 44 | 1012.2 |
| 20260504214933 | 26 | 287 | 14.5 | 17.7 | 0.00 | 0.00 | 0.00 | 42 | 1012.2 |
| 20260504214429 | 26 | 276 | 9.7 | 12.9 | 0.00 | 0.00 | 0.00 | 40 | 1012.2 |
| 20260504213926 | 26 | 269 | 8.0 | 16.1 | 0.00 | 0.00 | 0.00 | 42 | 1012.3 |
| 20260504213422 | 26 | 311 | 24.1 | 37.0 | 0.00 | 0.00 | 0.00 | 40 | 1012.3 |
| 20260504212920 | 26 | 286 | 12.9 | 22.5 | 0.00 | 0.00 | 0.00 | 41 | 1012.2 |
| 20260504212415 | 26 | 266 | 11.3 | 16.1 | 0.00 | 0.00 | 0.00 | 42 | 1012.3 |
| 20260504211913 | 26 | 269 | 9.7 | 17.7 | 0.00 | 0.00 | 0.00 | 40 | 1012.4 |
| 20260504211409 | 26 | 207 | 6.4 | 12.9 | 0.00 | 0.00 | 0.00 | 42 | 1012.4 |
| 20260504210907 | 26 | 285 | 11.3 | 14.5 | 0.00 | 0.00 | 0.00 | 40 | 1012.6 |
| 20260504210403 | 27 | 219 | 8.0 | 17.7 | 0.00 | 0.00 | 0.00 | 39 | 1012.6 |
| 20260504205900 | 26 | 268 | 11.3 | 17.7 | 0.00 | 0.00 | 0.00 | 41 | 1012.6 |
| 20260504205358 | 27 | 228 | 6.4 | 9.7 | 0.00 | 0.00 | 0.00 | 42 | 1012.7 |
| 20260504204856 | 26 | 228 | 8.0 | 14.5 | 0.00 | 0.00 | 0.00 | 41 | 1012.6 |
| 20260504204354 | 27 | 245 | 9.7 | 12.9 | 0.00 | 0.00 | 0.00 | 42 | 1012.8 |
| 20260504203854 | 27 | 183 | 4.8 | 9.7 | 0.00 | 0.00 | 0.00 | 42 | 1012.9 |
| 20260504203350 | 26 | 242 | 6.4 | 9.7 | 0.00 | 0.00 | 0.00 | 40 | 1013.0 |
| 20260504202846 | 27 | 247 | 12.9 | 24.1 | 0.00 | 0.00 | 0.00 | 41 | 1013.1 |
| 20260504202343 | 26 | 198 | 4.8 | 9.7 | 0.00 | 0.00 | 0.00 | 44 | 1013.1 |
| 20260504201839 | 27 | 233 | 9.7 | 16.1 | 0.00 | 0.00 | 0.00 | 41 | 1013.1 |
| 20260504201337 | 27 | 190 | 4.8 | 11.3 | 0.00 | 0.00 | 0.00 | 41 | 1013.2 |
| 20260504200834 | 27 | 220 | 6.4 | 14.5 | 0.00 | 0.00 | 0.00 | 40 | 1013.3 |
| 20260504200331 | 26 | 226 | 4.8 | 9.7 | 0.00 | 0.00 | 0.00 | 43 | 1013.4 |
| 20260504195827 | 27 | 223 | 4.8 | 12.9 | 0.00 | 0.00 | 0.00 | 39 | 1013.6 |
| 20260504195323 | 26 | 216 | 12.9 | 17.7 | 0.00 | 0.00 | 0.00 | 41 | 1013.6 |
| 20260504194820 | 26 | 213 | 11.3 | 20.9 | 0.00 | 0.00 | 0.00 | 42 | 1013.7 |
| 20260504194316 | 26 | 272 | 6.4 | 12.9 | 0.00 | 0.00 | 0.00 | 42 | 1013.7 |
| 20260504193812 | 26 | 248 | 8.0 | 16.1 | 0.00 | 0.00 | 0.00 | 43 | 1013.8 |
| 20260504193310 | 26 | 290 | 12.9 | 30.6 | 0.00 | 0.00 | 0.00 | 42 | 1013.8 |
| 20260504192808 | 25 | 224 | 4.8 | 6.4 | 0.00 | 0.00 | 0.00 | 46 | 1013.9 |
| 20260504192306 | 26 | 268 | 8.0 | 17.7 | 0.00 | 0.00 | 0.00 | 44 | 1014.0 |
| 20260504191804 | 26 | 242 | 6.4 | 12.9 | 0.00 | 0.00 | 0.00 | 44 | 1014.0 |
| 20260504191301 | 26 | 287 | 9.7 | 17.7 | 0.00 | 0.00 | 0.00 | 42 | 1014.1 |
| 20260504190756 | 26 | 226 | 6.4 | 14.5 | 0.00 | 0.00 | 0.00 | 44 | 1014.1 |
| 20260504190253 | 26 | 201 | 8.0 | 11.3 | 0.00 | 0.00 | 0.00 | 44 | 1014.3 |
| 20260504185749 | 26 | 236 | 4.8 | 12.9 | 0.00 | 0.00 | 0.00 | 43 | 1014.1 |
| 20260504185246 | 26 | 271 | 12.9 | 17.7 | 0.00 | 0.00 | 0.00 | 42 | 1014.1 |
| 20260504184742 | 26 | 238 | 14.5 | 20.9 | 0.00 | 0.00 | 0.00 | 44 | 1014.3 |
| 20260504184238 | 26 | 225 | 6.4 | 16.1 | 0.00 | 0.00 | 0.00 | 42 | 1014.1 |
| 20260504183734 | 25 | 272 | 9.7 | 17.7 | 0.00 | 0.00 | 0.00 | 44 | 1014.3 |
| 20260504183232 | 26 | 277 | 9.7 | 25.7 | 0.00 | 0.00 | 0.00 | 41 | 1014.2 |
| 20260504182730 | 26 | 285 | 9.7 | 17.7 | 0.00 | 0.00 | 0.00 | 43 | 1014.3 |
| 20260504182226 | 26 | 260 | 9.7 | 20.9 | 0.00 | 0.00 | 0.00 | 41 | 1014.5 |
| 20260504181724 | 26 | 257 | 6.4 | 12.9 | 0.00 | 0.00 | 0.00 | 45 | 1014.4 |
| 20260504181221 | 26 | 262 | 9.7 | 16.1 | 0.00 | 0.00 | 0.00 | 46 | 1014.4 |
| 20260504180720 | 26 | 299 | 4.8 | 16.1 | 0.00 | 0.00 | 0.00 | 43 | 1014.3 |
| 20260504180219 | 26 | 285 | 11.3 | 12.9 | 0.00 | 0.00 | 0.00 | 44 | 1014.7 |
| 20260504175716 | 25 | 264 | 8.0 | 14.5 | 0.00 | 0.00 | 0.00 | 42 | 1014.8 |
| 20260504175212 | 26 | 293 | 11.3 | 14.5 | 0.00 | 0.00 | 0.00 | 43 | 1014.6 |
| 20260504174711 | 25 | 208 | 8.0 | 14.5 | 0.00 | 0.00 | 0.00 | 44 | 1014.5 |
| 20260504174208 | 25 | 254 | 6.4 | 9.7 | 0.00 | 0.00 | 0.00 | 45 | 1014.7 |
| 20260504173704 | 25 | 237 | 3.2 | 14.5 | 0.00 | 0.00 | 0.00 | 47 | 1014.7 |
| 20260504173202 | 25 | 225 | 6.4 | 12.9 | 0.00 | 0.00 | 0.00 | 47 | 1014.9 |
| 20260504172658 | 25 | 270 | 6.4 | 11.3 | 0.00 | 0.00 | 0.00 | 51 | 1015.0 |
| 20260504172154 | 25 | 227 | 0.0 | 12.9 | 0.00 | 0.00 | 0.00 | 49 | 1015.1 |
| 20260504171650 | 25 | 252 | 4.8 | 12.9 | 0.00 | 0.00 | 0.00 | 48 | 1015.1 |
| 20260504171148 | 25 | 280 | 6.4 | 14.5 | 0.00 | 0.00 | 0.00 | 49 | 1015.1 |
| 20260504170644 | 24 | 267 | 6.4 | 16.1 | 0.00 | 0.00 | 0.00 | 48 | 1015.2 |
| 20260504170142 | 25 | 284 | 17.7 | 24.1 | 0.00 | 0.00 | 0.00 | 46 | 1015.5 |
| 20260504151022 | 22 | 277 | 6.4 | 11.3 | 0.00 | 0.00 | 0.00 | 55 | 1016.3 |
| 20260504150519 | 22 | 282 | 8.0 | 12.9 | 0.00 | 0.00 | 0.00 | 56 | 1016.7 |
| 20260504140847 | 19 | 224 | 1.6 | 4.8 | 0.00 | 0.00 | 0.00 | 67 | 1016.6 |
| 20260504140343 | 18 | 224 | 1.6 | 4.8 | 0.00 | 0.00 | 0.00 | 70 | 1016.6 |
| 20260504130811 | 15 | 232 | 3.2 | 4.8 | 0.00 | 0.00 | 0.00 | 79 | 1016.8 |
| 20260504130308 | 15 | 235 | 0.0 | 3.2 | 0.00 | 0.00 | 0.00 | 79 | 1016.6 |
| 20260504120231 | 12 | 239 | 0.0 | 0.0 | 0.00 | 0.00 | 0.00 | 88 | 1016.5 |
| 20260504110658 | 10 | 272 | 0.0 | 0.0 | 0.00 | 0.00 | 0.00 | 93 | 1016.0 |
| 20260504110154 | 10 | 272 | 0.0 | 1.6 | 0.00 | 0.00 | 0.00 | 93 | 1016.0 |
| 20260504100119 | 9 | 278 | 0.0 | 0.0 | 0.00 | 0.00 | 0.00 | 97 | 1016.2 |
| 20260504081512 | 9 | 278 | 0.0 | 0.0 | 0.00 | 0.00 | 0.00 | 95 | 1016.1 |
| 20260504081007 | 9 | 278 | 0.0 | 0.0 | 0.00 | 0.00 | 0.00 | 95 | 1016.0 |
| 20260504080504 | 9 | 278 | 0.0 | 0.0 | 0.00 | 0.00 | 0.00 | 94 | 1016.0 |
| 20260504050317 | 11 | 278 | 0.0 | 0.0 | 0.00 | 0.00 | 0.00 | 92 | 1017.4 |
| 20260504045814 | 11 | 278 | 0.0 | 0.0 | 0.00 | 0.00 | 0.00 | 92 | 1017.3 |
| 20260504045309 | 11 | 278 | 0.0 | 0.0 | 0.00 | 0.00 | 0.00 | 91 | 1017.2 |
| 20260504044806 | 11 | 277 | 0.0 | 0.0 | 0.00 | 0.00 | 0.00 | 91 | 1017.5 |
| 20260504044304 | 11 | 277 | 0.0 | 0.0 | 0.00 | 0.00 | 0.00 | 92 | 1017.5 |
| 20260504043800 | 11 | 277 | 0.0 | 0.0 | 0.00 | 0.00 | 0.00 | 92 | 1017.5 |
| 20260504043257 | 11 | 278 | 0.0 | 0.0 | 0.00 | 0.00 | 0.00 | 91 | 1017.7 |
| 20260504042756 | 11 | 278 | 0.0 | 0.0 | 0.00 | 0.00 | 0.00 | 91 | 1017.7 |
| 20260504042251 | 11 | 277 | 0.0 | 0.0 | 0.00 | 0.00 | 0.00 | 90 | 1017.6 |
| 20260504041748 | 11 | 277 | 0.0 | 0.0 | 0.00 | 0.00 | 0.00 | 91 | 1017.7 |
| 20260504041244 | 11 | 277 | 0.0 | 0.0 | 0.00 | 0.00 | 0.00 | 90 | 1017.7 |
| 20260504040740 | 12 | 277 | 0.0 | 0.0 | 0.00 | 0.00 | 0.00 | 90 | 1017.7 |
| 20260504040238 | 12 | 277 | 0.0 | 0.0 | 0.00 | 0.00 | 0.00 | 89 | 1017.6 |
| 20260504035734 | 12 | 277 | 0.0 | 0.0 | 0.00 | 0.00 | 0.00 | 88 | 1017.8 |
| 20260504035231 | 11 | 277 | 0.0 | 0.0 | 0.00 | 0.00 | 0.00 | 85 | 1018.0 |
| 20260504034729 | 12 | 277 | 0.0 | 0.0 | 0.00 | 0.00 | 0.00 | 85 | 1017.9 |
| 20260504034226 | 12 | 278 | 0.0 | 0.0 | 0.00 | 0.00 | 0.00 | 86 | 1018.0 |
| 20260504033724 | 12 | 278 | 0.0 | 0.0 | 0.00 | 0.00 | 0.00 | 85 | 1017.9 |
| 20260504033220 | 12 | 278 | 0.0 | 0.0 | 0.00 | 0.00 | 0.00 | 83 | 1018.0 |
| 20260504032717 | 12 | 278 | 0.0 | 0.0 | 0.00 | 0.00 | 0.00 | 83 | 1018.0 |
| 20260504032215 | 12 | 278 | 0.0 | 0.0 | 0.00 | 0.00 | 0.00 | 82 | 1018.2 |
| 20260504031711 | 12 | 278 | 0.0 | 0.0 | 0.00 | 0.00 | 0.00 | 82 | 1018.0 |
| 20260504031208 | 12 | 278 | 0.0 | 0.0 | 0.00 | 0.00 | 0.00 | 82 | 1018.2 |
| 20260504030704 | 12 | 278 | 0.0 | 0.0 | 0.00 | 0.00 | 0.00 | 81 | 1017.9 |
| 20260504030201 | 13 | 278 | 0.0 | 0.0 | 0.00 | 0.00 | 0.00 | 80 | 1018.0 |
| 20260504025657 | 13 | 278 | 0.0 | 0.0 | 0.00 | 0.00 | 0.00 | 79 | 1018.2 |
| 20260504025154 | 13 | 278 | 0.0 | 0.0 | 0.00 | 0.00 | 0.00 | 79 | 1017.8 |
| 20260504024651 | 13 | 278 | 0.0 | 0.0 | 0.00 | 0.00 | 0.00 | 78 | 1017.8 |
| 20260504024148 | 13 | 278 | 0.0 | 0.0 | 0.00 | 0.00 | 0.00 | 77 | 1017.8 |
| 20260504023645 | 14 | 278 | 0.0 | 0.0 | 0.00 | 0.00 | 0.00 | 76 | 1017.7 |
| 20260504023141 | 15 | 278 | 0.0 | 0.0 | 0.00 | 0.00 | 0.00 | 74 | 1017.7 |
| 20260504022637 | 15 | 278 | 0.0 | 0.0 | 0.00 | 0.00 | 0.00 | 70 | 1017.5 |
| 20260504022133 | 15 | 278 | 0.0 | 3.2 | 0.00 | 0.00 | 0.00 | 66 | 1017.6 |
| 20260504021632 | 15 | 279 | 0.0 | 0.0 | 0.00 | 0.00 | 0.00 | 73 | 1017.6 |
| 20260504021127 | 15 | 279 | 0.0 | 0.0 | 0.00 | 0.00 | 0.00 | 68 | 1017.6 |
| 20260504020625 | 15 | 279 | 0.0 | 0.0 | 0.00 | 0.00 | 0.00 | 67 | 1017.5 |
| 20260504020121 | 15 | 279 | 0.0 | 0.0 | 0.00 | 0.00 | 0.00 | 66 | 1017.6 |
| 20260504015617 | 15 | 279 | 0.0 | 0.0 | 0.00 | 0.00 | 0.00 | 66 | 1017.5 |
| 20260504015114 | 15 | 279 | 0.0 | 0.0 | 0.00 | 0.00 | 0.00 | 69 | 1017.6 |
| 20260504014610 | 15 | 279 | 0.0 | 0.0 | 0.00 | 0.00 | 0.00 | 64 | 1017.6 |
| 20260504014107 | 15 | 279 | 0.0 | 0.0 | 0.00 | 0.00 | 0.00 | 64 | 1017.4 |
| 20260504013604 | 16 | 279 | 0.0 | 0.0 | 0.00 | 0.00 | 0.00 | 62 | 1017.6 |
| 20260504013101 | 16 | 279 | 0.0 | 0.0 | 0.00 | 0.00 | 0.00 | 61 | 1017.4 |
| 20260504012558 | 16 | 279 | 0.0 | 0.0 | 0.00 | 0.00 | 0.00 | 63 | 1017.3 |
| 20260504012056 | 16 | 279 | 0.0 | 0.0 | 0.00 | 0.00 | 0.00 | 61 | 1017.4 |
| 20260504011553 | 16 | 279 | 0.0 | 0.0 | 0.00 | 0.00 | 0.00 | 62 | 1017.3 |
| 20260504011049 | 16 | 279 | 0.0 | 0.0 | 0.00 | 0.00 | 0.00 | 60 | 1017.4 |
| 20260504010545 | 17 | 279 | 0.0 | 0.0 | 0.00 | 0.00 | 0.00 | 58 | 1017.2 |
| 20260504010041 | 17 | 279 | 0.0 | 0.0 | 0.00 | 0.00 | 0.00 | 57 | 1017.2 |
| 20260504005538 | 17 | 278 | 0.0 | 0.0 | 0.00 | 0.00 | 0.00 | 56 | 1017.2 |
| 20260504005035 | 17 | 279 | 0.0 | 0.0 | 0.00 | 0.00 | 0.00 | 58 | 1017.3 |
| 20260504004533 | 18 | 278 | 0.0 | 0.0 | 0.00 | 0.00 | 0.00 | 58 | 1017.1 |
| 20260504004030 | 18 | 279 | 0.0 | 0.0 | 0.00 | 0.00 | 0.00 | 58 | 1017.3 |
| 20260504003526 | 18 | 279 | 0.0 | 0.0 | 0.00 | 0.00 | 0.00 | 54 | 1017.0 |
| 20260504003023 | 18 | 279 | 0.0 | 0.0 | 0.00 | 0.00 | 0.00 | 54 | 1017.1 |
| 20260504002520 | 19 | 279 | 0.0 | 0.0 | 0.00 | 0.00 | 0.00 | 56 | 1017.1 |
| 20260504002017 | 19 | 279 | 0.0 | 0.0 | 0.00 | 0.00 | 0.00 | 52 | 1017.2 |
| 20260504001515 | 19 | 279 | 0.0 | 0.0 | 0.00 | 0.00 | 0.00 | 48 | 1017.1 |
| 20260504001011 | 20 | 279 | 0.0 | 0.0 | 0.00 | 0.00 | 0.00 | 46 | 1017.3 |
| 20260504000508 | 20 | 279 | 0.0 | 0.0 | 0.00 | 0.00 | 0.00 | 45 | 1017.2 |
| 20260504000005 | 20 | 279 | 0.0 | 0.0 | 0.00 | 0.00 | 0.00 | 45 | 1017.3 |
| 20260503235503 | 21 | 279 | 0.0 | 0.0 | 0.00 | 0.00 | 0.00 | 43 | 1017.1 |
| 20260503235000 | 21 | 279 | 1.6 | 4.8 | 0.00 | 0.00 | 0.00 | 39 | 1017.1 |
| 20260503234458 | 21 | 279 | 3.2 | 6.4 | 0.00 | 0.00 | 0.00 | 39 | 1017.4 |
| 20260503233956 | 21 | 279 | 0.0 | 9.7 | 0.00 | 0.00 | 0.00 | 40 | 1017.3 |
| 20260503233452 | 21 | 275 | 6.4 | 11.3 | 0.00 | 0.00 | 0.00 | 36 | 1017.4 |
| 20260503232948 | 21 | 275 | 0.0 | 0.0 | 0.00 | 0.00 | 0.00 | 41 | 1017.6 |
| 20260503232445 | 22 | 275 | 0.0 | 3.2 | 0.00 | 0.00 | 0.00 | 40 | 1017.5 |
| 20260503231943 | 22 | 275 | 0.0 | 3.2 | 0.00 | 0.00 | 0.00 | 38 | 1017.5 |
| 20260503231440 | 22 | 275 | 1.6 | 4.8 | 0.00 | 0.00 | 0.00 | 37 | 1017.4 |
| 20260503230937 | 22 | 295 | 12.9 | 14.5 | 0.00 | 0.00 | 0.00 | 35 | 1017.5 |
| 20260503230433 | 22 | 267 | 6.4 | 9.7 | 0.00 | 0.00 | 0.00 | 35 | 1017.6 |
| 20260503225931 | 22 | 195 | 8.0 | 9.7 | 0.00 | 0.00 | 0.00 | 36 | 1017.6 |
| 20260503225427 | 23 | 235 | 3.2 | 4.8 | 0.00 | 0.00 | 0.00 | 39 | 1017.7 |
| 20260503224923 | 22 | 241 | 3.2 | 4.8 | 0.00 | 0.00 | 0.00 | 39 | 1017.7 |
| 20260503224420 | 23 | 241 | 6.4 | 9.7 | 0.00 | 0.00 | 0.00 | 37 | 1017.5 |
| 20260503223918 | 23 | 206 | 1.6 | 6.4 | 0.00 | 0.00 | 0.00 | 39 | 1017.8 |
| 20260503223416 | 23 | 276 | 4.8 | 11.3 | 0.00 | 0.00 | 0.00 | 38 | 1017.7 |
| 20260503222911 | 23 | 271 | 1.6 | 9.7 | 0.00 | 0.00 | 0.00 | 39 | 1017.7 |
| 20260503222410 | 23 | 265 | 3.2 | 6.4 | 0.00 | 0.00 | 0.00 | 38 | 1017.6 |
| 20260503221907 | 23 | 255 | 4.8 | 6.4 | 0.00 | 0.00 | 0.00 | 38 | 1017.9 |